Hovedside
METAR-TAF:

METAR-TAF

Lufthavner :

Singapore, Singapore

breddegrad: 01-22N, lengdegrad: 103-59E, høyde over havet: 5 m

Gjeldene værobservasjon

Denne rapporten ble laget for 29 minutter siden, klokken 22:00 UTC
Vind 1 kt fra Nord-nordvest
Temperatur 25°C
Luftfuktighet 89%
Trykk 1008 hPa
Sikt: 7000 m
Få skyer i en høyde av 1800 ft
Brutte skyer i en høyde av 16000 ft

METAR: WSSS 142200Z 33001KT 7000 FEW018 BKN160 25/23 Q1008 NOSIG

Tid: 06:29 (22:29 UTC)

Varsel

Denne rapporten ble laget for 5 timer og 29 minutter siden, klokken 17:00 UTC
Varsel gyldig fra 14. klokken 18 UTC til 16. klokken 00 UTC
Vind 6 kt fra Sør-sørøst
Sikt 10 km eller mer
Få skyer i en høyde av 1500 ft
Spredte skyer i en høyde av 2000 ft
Midlertidig
fra 15. klokken 03 UTC til 15. klokken 06 UTC
Sikt: 3000 m
Få skyer i en høyde av 1200 ft, Bygeskyer.
Brutte skyer i en høyde av 1500 ft
torden, regn

TAF: WSSS 141700Z 1418/1600 16006KT 9999 FEW015 SCT020 TEMPO 1503/1506 3000 TSRA FEW012CB BKN015

Værobservasjoner og værvarsel for over 4000 flyplasser (METAR- og TAF-rapporter).

Tilgjengelige stasjoner er representert av de røde og gule prikkene på kartet.

Hold musepekeren over prikken for å se navnet på stasjonen.

Klikk så for å se værobservasjoner og -varsler.

For å forandre kartet kan du klikke på den grønne knappen med svart kryss for å zoome inn, på den grønne knappen med strek for å zoome ut, eller på de grønne pilene for å se tilstøtende kart.


METAR-TAF: